Time;durP1;ratioP1;P1;durP2;ratioP2;P2;SDS_P1;SDS_P2;PMS_P1;PMS_P2;Temp;Humidity;BMP_temperature;BMP_pressure;BME280_temperature;BME280_humidity;BME280_pressure;Samples;Min_cycle;Max_cycle;Signal;HPM_P1;HPM_P2
2023/01/31 00:02:04;;;;;;;1.20;0.47;;;3.40;88.60;;;;;;4856713;29;20052;-77
2023/01/31 00:04:30;;;;;;;1.60;0.50;;;3.40;88.80;;;;;;4873315;29;20032;-77
2023/01/31 00:06:56;;;;;;;1.52;0.60;;;3.40;88.90;;;;;;4888395;29;20139;-78
2023/01/31 00:09:21;;;;;;;0.68;0.40;;;3.40;88.90;;;;;;4925437;29;20055;-78
2023/01/31 00:11:47;;;;;;;1.08;0.40;;;3.20;88.90;;;;;;4906859;29;20048;-77
2023/01/31 00:14:18;;;;;;;0.75;0.20;;;3.30;89.10;;;;;;4914841;29;20467;-76
2023/01/31 00:16:43;;;;;;;1.33;0.40;;;3.20;89.20;;;;;;4941485;28;20413;-77
2023/01/31 00:19:09;;;;;;;1.95;0.47;;;3.20;89.30;;;;;;4940727;28;20046;-76
2023/01/31 00:21:35;;;;;;;2.05;0.40;;;3.10;89.40;;;;;;4956040;28;20504;-77
2023/01/31 00:24:01;;;;;;;0.30;0.25;;;3.10;89.50;;;;;;4955389;28;20091;-76
2023/01/31 00:26:30;;;;;;;0.38;0.28;;;3.00;89.70;;;;;;4956562;28;20117;-77
2023/01/31 00:28:57;;;;;;;0.98;0.32;;;3.00;89.80;;;;;;4956396;28;20035;-77
2023/01/31 00:31:24;;;;;;;1.77;0.30;;;2.90;89.80;;;;;;4955963;28;20438;-77
2023/01/31 00:33:52;;;;;;;2.08;0.40;;;2.90;89.80;;;;;;4973593;28;20046;-77
2023/01/31 00:36:22;;;;;;;0.70;0.30;;;2.90;90.20;;;;;;4939547;28;20039;-77
2023/01/31 00:38:51;;;;;;;0.95;0.40;;;2.80;89.90;;;;;;4955000;28;20509;-77
2023/01/31 00:41:17;;;;;;;1.17;0.40;;;2.90;90.00;;;;;;4940380;28;20042;-78
2023/01/31 00:43:43;;;;;;;0.55;0.30;;;2.90;89.90;;;;;;4954811;28;20051;-78
2023/01/31 00:46:09;;;;;;;0.75;0.40;;;2.90;89.80;;;;;;4956173;28;20047;-77
2023/01/31 00:48:35;;;;;;;1.08;0.40;;;2.90;89.80;;;;;;4955337;28;20042;-77
2023/01/31 00:51:00;;;;;;;3.13;0.52;;;2.90;89.70;;;;;;4973551;28;20031;-77
2023/01/31 00:53:26;;;;;;;1.42;0.40;;;2.80;89.70;;;;;;4973977;28;20035;-76
2023/01/31 00:55:54;;;;;;;1.15;0.38;;;2.80;89.80;;;;;;4974051;28;20035;-76
2023/01/31 00:58:20;;;;;;;1.50;0.30;;;2.70;89.90;;;;;;4954535;28;20039;-76
2023/01/31 01:00:46;;;;;;;0.50;0.30;;;2.70;90.00;;;;;;4955719;28;20481;-77
2023/01/31 01:03:12;;;;;;;1.02;0.38;;;2.60;90.00;;;;;;4955041;28;20031;-76
2023/01/31 01:05:37;;;;;;;1.98;0.28;;;2.60;90.00;;;;;;4954603;28;20117;-77
2023/01/31 01:08:03;;;;;;;1.40;0.80;;;2.70;90.00;;;;;;4955473;28;20382;-77
2023/01/31 01:10:29;;;;;;;2.00;0.40;;;2.60;90.10;;;;;;4972950;28;20178;-77
2023/01/31 01:12:54;;;;;;;0.20;0.20;;;2.50;90.10;;;;;;4973432;28;20043;-77
2023/01/31 01:15:20;;;;;;;0.35;0.30;;;2.50;90.10;;;;;;4955868;28;20093;-77
2023/01/31 01:17:46;;;;;;;1.00;0.35;;;2.50;90.10;;;;;;4923191;28;20042;-77
2023/01/31 01:20:11;;;;;;;0.57;0.20;;;2.40;90.10;;;;;;4954367;28;20509;-77
2023/01/31 01:22:37;;;;;;;1.00;0.40;;;2.40;90.10;;;;;;4972956;28;20449;-77
2023/01/31 01:25:04;;;;;;;1.42;0.30;;;2.40;90.20;;;;;;4939345;28;20054;-77
2023/01/31 01:27:30;;;;;;;1.25;0.40;;;2.30;90.20;;;;;;4955038;28;20553;-77
2023/01/31 01:29:57;;;;;;;0.45;0.30;;;2.40;90.10;;;;;;4972890;28;20109;-77
2023/01/31 01:32:23;;;;;;;1.25;0.25;;;2.40;90.10;;;;;;4955432;28;20035;-76
2023/01/31 01:34:49;;;;;;;2.30;0.90;;;2.40;90.10;;;;;;4973157;28;20397;-76
2023/01/31 01:37:18;;;;;;;2.38;0.40;;;2.40;90.10;;;;;;4952482;28;20058;-77
2023/01/31 01:39:46;;;;;;;2.30;0.43;;;2.40;90.10;;;;;;4972549;28;20043;-77
2023/01/31 01:42:16;;;;;;;0.65;0.25;;;2.40;90.10;;;;;;4972689;28;20053;-76
2023/01/31 01:44:51;;;;;;;0.40;0.40;;;2.30;90.10;;;;;;4953702;28;20102;-77
2023/01/31 01:47:39;;;;;;;0.90;0.43;;;2.40;90.10;;;;;;4975841;28;20054;-76
2023/01/31 01:50:28;;;;;;;0.68;0.50;;;2.30;90.10;;;;;;4976312;28;20089;-76
2023/01/31 01:53:03;;;;;;;0.35;0.20;;;2.30;90.10;;;;;;4958120;28;20042;-76
2023/01/31 01:55:37;;;;;;;0.57;0.20;;;2.30;90.10;;;;;;4941767;28;20079;-77
2023/01/31 01:58:16;;;;;;;0.77;0.50;;;2.30;90.10;;;;;;4957333;28;20040;-77
2023/01/31 02:00:44;;;;;;;0.40;0.20;;;2.30;90.10;;;;;;4958481;28;20051;-77
2023/01/31 02:03:10;;;;;;;1.90;0.28;;;2.30;90.10;;;;;;4976300;28;20062;-76
2023/01/31 02:05:45;;;;;;;0.35;0.20;;;2.30;90.10;;;;;;4957106;28;20521;-76
2023/01/31 02:08:13;;;;;;;0.40;0.20;;;2.30;90.10;;;;;;4957926;28;20057;-76
2023/01/31 02:10:47;;;;;;;1.35;0.50;;;2.30;90.10;;;;;;4975670;28;20513;-76
2023/01/31 02:13:14;;;;;;;1.45;0.47;;;2.30;90.10;;;;;;4958373;28;20566;-77
2023/01/31 02:15:39;;;;;;;1.10;0.47;;;2.40;90.10;;;;;;4925624;28;20063;-76
2023/01/31 02:18:06;;;;;;;1.52;0.30;;;2.30;90.10;;;;;;4956786;28;20050;-76
2023/01/31 02:21:11;;;;;;;0.77;0.32;;;2.30;90.10;;;;;;4956780;28;20481;-76
2023/01/31 02:24:05;;;;;;;0.40;0.30;;;2.50;90.10;;;;;;4963899;28;20050;-76
2023/01/31 02:27:01;;;;;;;1.23;0.38;;;2.50;90.10;;;;;;4975699;28;20042;-77
2023/01/31 02:29:52;;;;;;;1.58;0.40;;;2.50;90.00;;;;;;4943755;28;20137;-76
2023/01/31 02:32:43;;;;;;;0.82;0.20;;;2.60;90.00;;;;;;4956194;28;20369;-76
2023/01/31 02:35:44;;;;;;;0.95;0.30;;;2.70;90.00;;;;;;4959390;28;20050;-76
2023/01/31 02:38:32;;;;;;;0.52;0.28;;;2.60;89.90;;;;;;4943265;28;20047;-77
2023/01/31 02:41:15;;;;;;;0.85;0.30;;;2.60;89.80;;;;;;4975223;28;20472;-77
2023/01/31 02:47:07;;;;;;;1.08;0.50;;;2.70;89.70;;;;;;4973911;28;20529;-77
2023/01/31 02:49:56;;;;;;;0.60;0.38;;;2.70;89.60;;;;;;4959667;28;20055;-76
2023/01/31 02:52:37;;;;;;;0.82;0.45;;;2.80;89.60;;;;;;4956377;28;20036;-76
2023/01/31 02:58:02;;;;;;;0.82;0.40;;;2.90;89.50;;;;;;4958426;28;20153;-76
2023/01/31 03:00:32;;;;;;;1.00;0.50;;;2.90;89.40;;;;;;4956992;28;20066;-77
2023/01/31 03:02:58;;;;;;;1.38;0.40;;;3.00;89.50;;;;;;4956276;28;20047;-77
2023/01/31 03:05:24;;;;;;;2.50;0.55;;;2.90;89.40;;;;;;4975146;28;20043;-76
2023/01/31 03:07:54;;;;;;;0.40;0.38;;;3.00;89.40;;;;;;4975058;28;20043;-77
2023/01/31 03:10:47;;;;;;;1.25;0.52;;;3.00;89.40;;;;;;4975431;28;20541;-76
2023/01/31 03:13:30;;;;;;;0.68;0.40;;;3.00;89.40;;;;;;4944200;28;20051;-76
2023/01/31 03:19:12;;;;;;;0.93;0.40;;;3.10;89.50;;;;;;4958920;28;20063;-77
2023/01/31 03:21:46;;;;;;;1.83;0.52;;;3.20;89.60;;;;;;4974110;28;20039;-77
2023/01/31 03:24:12;;;;;;;1.83;0.60;;;3.20;89.40;;;;;;4957702;28;20058;-77
2023/01/31 03:26:38;;;;;;;2.22;0.73;;;3.30;89.40;;;;;;4941530;28;20410;-77
2023/01/31 03:29:05;;;;;;;1.30;0.70;;;3.30;90.00;;;;;;4956760;28;20043;-77
2023/01/31 03:31:38;;;;;;;2.83;0.57;;;3.40;89.30;;;;;;4975116;28;20035;-77
2023/01/31 03:34:07;;;;;;;2.17;0.43;;;3.40;89.30;;;;;;4957878;28;20074;-76
2023/01/31 03:36:57;;;;;;;1.65;0.73;;;3.50;89.30;;;;;;4955823;28;20097;-77
2023/01/31 03:39:48;;;;;;;1.70;0.70;;;3.50;89.30;;;;;;4957523;28;20051;-77
2023/01/31 03:42:29;;;;;;;2.40;0.93;;;3.60;89.30;;;;;;4959494;28;20405;-77
2023/01/31 03:45:05;;;;;;;2.70;0.85;;;3.60;89.20;;;;;;4974220;28;20512;-77
2023/01/31 03:47:37;;;;;;;2.50;0.73;;;3.60;89.10;;;;;;4955126;28;20076;-77
2023/01/31 03:50:11;;;;;;;2.97;1.30;;;3.60;89.10;;;;;;4955538;28;20094;-77
2023/01/31 03:52:42;;;;;;;2.17;0.80;;;3.70;89.20;;;;;;4956276;28;20366;-76
2023/01/31 03:55:17;;;;;;;1.70;0.90;;;3.70;89.10;;;;;;4974646;28;20035;-76
2023/01/31 03:57:48;;;;;;;1.60;0.70;;;3.70;89.20;;;;;;4973974;28;20066;-77
2023/01/31 04:00:16;;;;;;;1.60;0.80;;;3.80;89.20;;;;;;4940873;28;20117;-77
2023/01/31 04:02:42;;;;;;;2.92;1.10;;;3.80;89.20;;;;;;4955751;28;20043;-76
2023/01/31 04:05:12;;;;;;;3.45;1.17;;;3.80;89.30;;;;;;4955532;28;20058;-76
2023/01/31 04:07:39;;;;;;;2.97;1.00;;;3.80;89.20;;;;;;4923135;28;20509;-77
2023/01/31 04:10:11;;;;;;;3.75;1.05;;;3.80;89.90;;;;;;4954957;28;20185;-77
2023/01/31 04:12:36;;;;;;;2.45;0.98;;;3.90;89.40;;;;;;4957256;28;20053;-76
2023/01/31 04:15:04;;;;;;;2.65;0.98;;;3.90;89.40;;;;;;4940584;28;20046;-77
2023/01/31 04:17:30;;;;;;;4.82;1.30;;;3.90;89.40;;;;;;4974041;28;20047;-77
2023/01/31 04:19:56;;;;;;;5.57;1.30;;;3.90;89.40;;;;;;4939639;28;20142;-77
2023/01/31 04:22:22;;;;;;;3.50;1.50;;;3.90;89.40;;;;;;4938592;28;20054;-77
2023/01/31 04:24:47;;;;;;;2.10;1.10;;;3.90;89.50;;;;;;4956091;28;20050;-77
2023/01/31 04:27:13;;;;;;;3.33;1.40;;;3.90;89.50;;;;;;4955283;28;20035;-76
2023/01/31 04:29:39;;;;;;;3.15;1.50;;;3.90;89.50;;;;;;4973558;28;20031;-76
2023/01/31 04:32:04;;;;;;;3.53;1.45;;;3.90;89.60;;;;;;4956466;28;20062;-77
2023/01/31 04:34:30;;;;;;;5.55;1.45;;;3.90;89.70;;;;;;4956248;28;20054;-77
2023/01/31 04:36:55;;;;;;;3.80;1.25;;;3.90;89.80;;;;;;4956472;28;20409;-77
2023/01/31 04:39:21;;;;;;;2.45;1.05;;;3.90;89.80;;;;;;4940258;28;20133;-77
2023/01/31 04:41:47;;;;;;;3.40;1.25;;;3.90;89.90;;;;;;4973802;28;20109;-77
2023/01/31 04:44:13;;;;;;;1.65;1.00;;;3.90;89.90;;;;;;4956209;28;20047;-77
2023/01/31 04:46:38;;;;;;;2.22;1.20;;;3.90;90.00;;;;;;4956841;28;20549;-77
2023/01/31 04:49:04;;;;;;;2.33;0.98;;;3.80;90.00;;;;;;4956160;28;20027;-77
2023/01/31 04:51:30;;;;;;;3.65;1.17;;;3.90;90.00;;;;;;4973723;28;20389;-77
2023/01/31 04:53:55;;;;;;;2.85;1.48;;;3.90;90.10;;;;;;4973214;28;20477;-77
2023/01/31 04:56:21;;;;;;;6.85;1.63;;;3.90;90.10;;;;;;4939436;28;20043;-77
2023/01/31 04:58:47;;;;;;;4.03;1.40;;;3.90;90.10;;;;;;4955947;28;20047;-77
2023/01/31 05:01:13;;;;;;;3.17;1.27;;;3.90;90.10;;;;;;4954640;28;20039;-77
2023/01/31 05:03:39;;;;;;;3.58;1.70;;;3.90;90.10;;;;;;4971361;28;20520;-77
2023/01/31 05:06:05;;;;;;;4.32;1.70;;;3.90;90.10;;;;;;4939526;28;20031;-77
2023/01/31 05:08:30;;;;;;;2.35;1.30;;;3.90;90.10;;;;;;4973341;28;20023;-77
2023/01/31 05:10:58;;;;;;;3.50;1.58;;;3.90;90.10;;;;;;4956335;28;20421;-77
2023/01/31 05:13:25;;;;;;;3.35;1.63;;;3.90;90.10;;;;;;4955456;28;20082;-76
2023/01/31 05:15:51;;;;;;;3.38;1.38;;;4.00;90.10;;;;;;4939383;28;20040;-77
2023/01/31 05:18:17;;;;;;;5.60;1.63;;;4.00;90.20;;;;;;4938225;28;20035;-77
2023/01/31 05:20:43;;;;;;;4.53;1.70;;;4.00;90.20;;;;;;4940048;28;20094;-77
2023/01/31 05:23:09;;;;;;;3.53;1.85;;;4.00;90.20;;;;;;4955518;28;20031;-77
2023/01/31 05:25:36;;;;;;;4.55;1.80;;;4.00;90.20;;;;;;4955146;28;20132;-77
2023/01/31 05:28:03;;;;;;;4.70;1.80;;;4.00;90.20;;;;;;4954049;28;20047;-77
2023/01/31 05:30:29;;;;;;;5.75;1.95;;;4.10;90.20;;;;;;4955391;28;20432;-77
2023/01/31 05:32:55;;;;;;;5.13;2.40;;;4.00;90.20;;;;;;4954902;28;20091;-77
2023/01/31 05:35:21;;;;;;;4.72;2.10;;;4.10;90.20;;;;;;4972891;28;20038;-76
2023/01/31 05:37:46;;;;;;;6.45;2.20;;;4.10;90.20;;;;;;4954281;28;20456;-77
2023/01/31 05:40:15;;;;;;;4.55;2.05;;;4.10;90.50;;;;;;4955548;28;20042;-76
2023/01/31 05:42:42;;;;;;;4.60;1.92;;;4.10;90.20;;;;;;4972789;28;20034;-77
2023/01/31 05:45:10;;;;;;;6.55;2.53;;;4.10;90.20;;;;;;4938781;28;20379;-77
2023/01/31 05:47:36;;;;;;;5.60;1.98;;;4.20;90.20;;;;;;4954477;28;20536;-77
2023/01/31 05:50:01;;;;;;;7.22;2.20;;;4.20;90.50;;;;;;4955724;28;20182;-77
2023/01/31 05:52:27;;;;;;;4.95;2.30;;;4.10;90.20;;;;;;4954341;28;20130;-77
2023/01/31 05:54:53;;;;;;;6.13;2.45;;;4.20;90.20;;;;;;4939514;28;20126;-82
2023/01/31 05:57:18;;;;;;;6.38;2.28;;;4.20;90.20;;;;;;4937928;28;20134;-81
2023/01/31 05:59:44;;;;;;;6.80;2.35;;;4.20;90.20;;;;;;4939275;28;20038;-81
2023/01/31 06:02:11;;;;;;;5.80;2.70;;;4.20;90.20;;;;;;4955476;28;20090;-81
2023/01/31 06:04:37;;;;;;;5.65;2.05;;;4.30;90.30;;;;;;4939720;28;20035;-81
2023/01/31 06:07:02;;;;;;;4.35;2.15;;;4.30;90.30;;;;;;4939609;28;20039;-81
2023/01/31 06:09:28;;;;;;;5.53;2.55;;;4.30;90.30;;;;;;4945002;28;20043;-81
2023/01/31 06:11:54;;;;;;;6.07;2.63;;;4.30;90.30;;;;;;4973026;28;20031;-81
2023/01/31 06:14:19;;;;;;;6.45;2.70;;;4.40;90.30;;;;;;4937703;28;20043;-81
2023/01/31 06:16:45;;;;;;;5.55;2.60;;;4.30;90.30;;;;;;4938102;28;20039;-82
2023/01/31 06:19:11;;;;;;;5.70;2.53;;;4.40;90.30;;;;;;4955314;28;20517;-81
2023/01/31 06:21:36;;;;;;;4.57;2.25;;;4.40;90.30;;;;;;4939762;28;20050;-77
2023/01/31 06:24:02;;;;;;;5.43;2.20;;;4.50;90.30;;;;;;4937983;28;20047;-76
2023/01/31 06:26:28;;;;;;;9.38;2.90;;;4.50;90.30;;;;;;4962493;28;20027;-79
2023/01/31 06:28:54;;;;;;;6.95;3.05;;;4.50;90.30;;;;;;4978197;28;20389;-78
2023/01/31 06:31:20;;;;;;;5.95;2.55;;;4.40;90.30;;;;;;4968106;28;20039;-78
2023/01/31 06:33:45;;;;;;;6.07;2.60;;;4.60;90.30;;;;;;4995550;28;20109;-78
2023/01/31 06:36:11;;;;;;;5.78;2.30;;;4.50;90.30;;;;;;4977237;28;20059;-79
2023/01/31 06:38:37;;;;;;;4.80;2.45;;;4.50;90.40;;;;;;4995487;28;20022;-79
2023/01/31 06:41:02;;;;;;;4.85;2.65;;;4.60;90.40;;;;;;4963925;28;20031;-79
2023/01/31 06:43:28;;;;;;;5.80;2.80;;;4.50;90.40;;;;;;4981706;28;20030;-78
2023/01/31 06:45:54;;;;;;;5.25;2.53;;;4.50;90.40;;;;;;4980614;28;20035;-78
2023/01/31 06:48:19;;;;;;;6.43;2.97;;;4.50;90.40;;;;;;4980616;28;20057;-78
2023/01/31 06:50:45;;;;;;;6.95;2.78;;;4.40;90.40;;;;;;4965240;28;20090;-77
2023/01/31 06:53:11;;;;;;;5.35;2.60;;;4.50;90.40;;;;;;4978426;28;20420;-78
2023/01/31 06:55:38;;;;;;;5.70;2.72;;;4.50;90.40;;;;;;4962655;28;20114;-78
2023/01/31 06:58:03;;;;;;;6.57;2.72;;;4.60;90.50;;;;;;4945698;28;20050;-78
2023/01/31 07:00:29;;;;;;;6.78;2.70;;;4.60;90.50;;;;;;4962374;28;20046;-79
2023/01/31 07:02:55;;;;;;;4.82;2.40;;;4.60;90.40;;;;;;4976850;28;20031;-78
2023/01/31 07:05:22;;;;;;;6.45;2.70;;;4.60;90.40;;;;;;4990195;28;20039;-77
2023/01/31 07:07:48;;;;;;;5.75;2.38;;;4.80;90.50;;;;;;4952715;28;20038;-78
2023/01/31 07:10:15;;;;;;;5.55;2.72;;;4.60;90.50;;;;;;4941738;28;20508;-77
2023/01/31 07:12:41;;;;;;;8.60;2.80;;;4.60;90.50;;;;;;4981311;28;20165;-77
2023/01/31 07:15:08;;;;;;;5.93;2.53;;;4.60;90.50;;;;;;4928136;28;20509;-77
2023/01/31 07:17:34;;;;;;;4.22;2.25;;;4.70;90.50;;;;;;4960839;28;20058;-75
2023/01/31 07:20:00;;;;;;;5.65;2.53;;;4.70;90.50;;;;;;4940924;28;20497;-77
2023/01/31 07:22:25;;;;;;;5.07;2.28;;;4.70;90.50;;;;;;4925604;28;20038;-76
2023/01/31 07:24:51;;;;;;;6.45;2.30;;;4.70;90.50;;;;;;4939508;28;20078;-77
2023/01/31 07:27:17;;;;;;;4.15;2.20;;;4.70;90.50;;;;;;4957445;28;20042;-77
2023/01/31 07:29:43;;;;;;;5.63;2.80;;;4.70;90.50;;;;;;4956427;28;20035;-77
2023/01/31 07:32:09;;;;;;;5.18;2.30;;;4.70;90.50;;;;;;4941573;28;20034;-77
2023/01/31 07:34:35;;;;;;;5.20;2.40;;;4.70;90.50;;;;;;4957196;28;20042;-77
2023/01/31 07:37:01;;;;;;;6.70;2.45;;;4.80;90.50;;;;;;4956499;28;20039;-77
2023/01/31 07:39:27;;;;;;;7.53;2.50;;;4.80;90.50;;;;;;4940321;28;20835;-79
2023/01/31 07:41:53;;;;;;;5.13;2.45;;;4.90;90.60;;;;;;4941423;28;20042;-77
2023/01/31 07:44:18;;;;;;;4.90;2.03;;;4.80;90.50;;;;;;4956518;28;20102;-75
2023/01/31 07:46:44;;;;;;;6.63;2.40;;;4.80;90.50;;;;;;4956026;28;20052;-77
2023/01/31 07:49:10;;;;;;;5.97;2.53;;;4.80;90.50;;;;;;4974915;28;20027;-77
2023/01/31 07:51:37;;;;;;;6.47;2.90;;;4.80;90.50;;;;;;4925931;28;20042;-76
2023/01/31 07:54:04;;;;;;;5.22;2.55;;;4.80;90.50;;;;;;4956242;28;20493;-77
2023/01/31 07:56:29;;;;;;;5.35;2.78;;;4.80;90.50;;;;;;4974385;28;20134;-76
2023/01/31 07:58:55;;;;;;;6.63;2.90;;;4.90;90.50;;;;;;4940891;28;20126;-77
2023/01/31 08:04:06;;;;;;;6.28;2.75;;;5.00;90.50;;;;;;4974228;28;20046;-78
2023/01/31 08:06:32;;;;;;;7.22;2.20;;;5.00;90.40;;;;;;4923948;28;20130;-76
2023/01/31 08:09:00;;;;;;;5.55;2.22;;;4.90;90.40;;;;;;4974343;28;20117;-77
2023/01/31 08:11:26;;;;;;;4.82;2.45;;;5.00;90.40;;;;;;4974291;28;20035;-77
2023/01/31 08:13:52;;;;;;;5.57;2.22;;;4.90;90.40;;;;;;4955067;28;20490;-78
2023/01/31 08:16:19;;;;;;;5.43;2.35;;;5.00;90.40;;;;;;4955333;28;20047;-77
2023/01/31 08:18:46;;;;;;;5.53;2.28;;;5.00;90.50;;;;;;4974452;28;20065;-76
2023/01/31 08:21:12;;;;;;;4.55;2.10;;;5.10;90.50;;;;;;4974334;28;20395;-77
2023/01/31 08:23:39;;;;;;;4.65;2.15;;;5.00;90.40;;;;;;4955311;28;20047;-76
2023/01/31 08:26:10;;;;;;;5.90;2.00;;;5.00;90.40;;;;;;4973922;28;20433;-75
2023/01/31 08:28:36;;;;;;;8.40;2.35;;;5.00;90.40;;;;;;4924049;28;20038;-76
2023/01/31 08:31:02;;;;;;;5.60;2.03;;;5.00;90.40;;;;;;4956684;28;20031;-76
2023/01/31 08:33:28;;;;;;;6.45;2.28;;;5.10;90.50;;;;;;4956150;28;20043;-75
2023/01/31 08:35:54;;;;;;;4.75;2.08;;;5.10;90.50;;;;;;4971805;28;20098;-76
2023/01/31 08:38:19;;;;;;;6.30;2.08;;;5.10;90.50;;;;;;4955156;28;20049;-76
2023/01/31 08:40:45;;;;;;;5.78;2.20;;;5.10;90.50;;;;;;4956394;28;20057;-76
2023/01/31 08:43:11;;;;;;;5.00;2.28;;;5.10;90.50;;;;;;4956950;28;20043;-76
2023/01/31 08:45:37;;;;;;;5.63;2.25;;;5.10;90.40;;;;;;4973972;28;20049;-77
2023/01/31 08:48:03;;;;;;;5.85;2.40;;;5.10;90.40;;;;;;4973929;28;20130;-77
2023/01/31 08:50:30;;;;;;;4.47;2.28;;;5.20;90.40;;;;;;4955584;28;20063;-77
2023/01/31 08:52:59;;;;;;;3.75;2.10;;;5.20;90.40;;;;;;4974040;28;20101;-76
2023/01/31 08:55:26;;;;;;;3.35;1.60;;;5.30;90.40;;;;;;4973153;28;20478;-76
2023/01/31 08:57:52;;;;;;;5.95;2.38;;;5.30;90.40;;;;;;4956898;28;20043;-76
2023/01/31 09:00:19;;;;;;;7.18;2.50;;;5.30;90.40;;;;;;4956716;28;20098;-76
2023/01/31 09:02:50;;;;;;;5.88;2.50;;;5.30;90.40;;;;;;4940348;28;20042;-77
2023/01/31 09:05:16;;;;;;;;;;;5.40;90.30;;;;;;4940586;28;20409;-77
2023/01/31 09:07:42;;;;;;;5.25;2.22;;;5.40;90.30;;;;;;4956120;28;19917;-77
2023/01/31 09:10:08;;;;;;;5.28;2.15;;;5.40;90.20;;;;;;4940230;28;20039;-76
2023/01/31 09:12:34;;;;;;;6.30;2.40;;;5.30;90.20;;;;;;4973259;28;20031;-76
2023/01/31 09:15:00;;;;;;;5.78;2.17;;;5.50;90.20;;;;;;4940025;28;20034;-76
2023/01/31 09:17:26;;;;;;;4.60;1.90;;;5.50;90.20;;;;;;4956322;28;20150;-77
2023/01/31 09:19:52;;;;;;;3.40;1.83;;;5.50;90.20;;;;;;4973206;28;20121;-76
2023/01/31 09:22:17;;;;;;;4.00;2.03;;;5.50;90.20;;;;;;4956001;28;20035;-76
2023/01/31 09:24:44;;;;;;;4.80;1.70;;;5.50;90.20;;;;;;4938404;28;20081;-76
2023/01/31 09:27:10;;;;;;;5.05;1.70;;;5.60;90.20;;;;;;4956017;28;20474;-77
2023/01/31 09:29:36;;;;;;;3.67;1.75;;;5.60;90.20;;;;;;4938652;28;20130;-77
2023/01/31 09:32:01;;;;;;;3.92;1.65;;;5.60;90.20;;;;;;4973189;28;20130;-77
2023/01/31 09:34:27;;;;;;;4.28;1.77;;;5.60;90.20;;;;;;4953934;28;20067;-76
2023/01/31 09:36:55;;;;;;;4.20;1.80;;;5.60;90.20;;;;;;4939231;28;20038;-77
2023/01/31 09:39:21;;;;;;;5.75;2.25;;;5.60;90.20;;;;;;4973287;28;20057;-78
2023/01/31 09:41:51;;;;;;;6.82;2.72;;;5.60;90.20;;;;;;4973432;28;20489;-76
2023/01/31 09:44:28;;;;;;;6.13;2.25;;;5.60;90.20;;;;;;4937914;28;20102;-77
2023/01/31 09:47:05;;;;;;;4.65;1.88;;;5.60;90.20;;;;;;4941295;28;20444;-76
2023/01/31 09:49:41;;;;;;;3.97;1.88;;;5.70;90.20;;;;;;4957045;28;20038;-77
2023/01/31 09:52:09;;;;;;;6.72;2.60;;;5.70;90.20;;;;;;4939215;28;20130;-77
2023/01/31 09:54:38;;;;;;;3.72;2.10;;;5.70;90.20;;;;;;4954307;28;20545;-76
2023/01/31 09:57:19;;;;;;;5.07;2.03;;;5.70;90.20;;;;;;4971130;28;20051;-78
2023/01/31 10:00:11;;;;;;;6.22;2.25;;;5.70;90.20;;;;;;4954161;28;20098;-78
2023/01/31 10:02:55;;;;;;;5.05;2.40;;;5.60;90.20;;;;;;4938097;28;20035;-78
2023/01/31 10:05:41;;;;;;;5.55;2.17;;;5.70;90.20;;;;;;4940754;28;20050;-77
2023/01/31 10:08:41;;;;;;;4.95;2.30;;;5.70;90.20;;;;;;4975655;28;20042;-77
2023/01/31 10:11:14;;;;;;;5.85;2.33;;;5.80;90.20;;;;;;4957515;28;20108;-76
2023/01/31 10:13:53;;;;;;;5.70;2.20;;;5.70;90.20;;;;;;4942366;28;20401;-77
2023/01/31 10:16:35;;;;;;;6.55;2.47;;;5.80;90.20;;;;;;4976222;28;20050;-77
2023/01/31 10:19:07;;;;;;;5.35;2.47;;;5.80;90.20;;;;;;4958391;28;20146;-78
2023/01/31 10:21:42;;;;;;;6.68;2.58;;;5.70;90.20;;;;;;4956649;28;20044;-77
2023/01/31 10:24:22;;;;;;;5.70;2.08;;;5.80;90.20;;;;;;4957036;28;20057;-77
2023/01/31 10:26:51;;;;;;;4.57;2.10;;;5.80;90.20;;;;;;4958734;28;20038;-77
2023/01/31 10:29:33;;;;;;;6.43;2.60;;;5.90;90.20;;;;;;4975804;28;20134;-76
2023/01/31 10:32:03;;;;;;;6.25;2.45;;;5.90;90.10;;;;;;4957079;28;20046;-77
2023/01/31 10:34:38;;;;;;;7.07;2.30;;;5.90;90.10;;;;;;4975735;28;20031;-76
2023/01/31 10:37:11;;;;;;;4.85;2.20;;;6.00;90.10;;;;;;4975850;28;20066;-77
2023/01/31 10:39:44;;;;;;;4.18;1.67;;;6.00;90.10;;;;;;4956418;28;20102;-76
2023/01/31 10:42:28;;;;;;;4.55;1.77;;;6.10;90.10;;;;;;4942334;28;20042;-77
2023/01/31 10:44:59;;;;;;;4.43;1.80;;;6.10;90.10;;;;;;4975479;28;20382;-76
2023/01/31 10:47:33;;;;;;;4.60;1.85;;;6.10;90.10;;;;;;4940541;28;20098;-78
2023/01/31 10:49:58;;;;;;;5.65;1.95;;;6.20;90.10;;;;;;4975907;28;20058;-77
2023/01/31 10:52:52;;;;;;;4.75;2.10;;;6.20;90.10;;;;;;4975422;28;20042;-76
2023/01/31 10:55:51;;;;;;;4.40;2.00;;;6.30;90.10;;;;;;4962206;28;20138;-77
2023/01/31 10:58:21;;;;;;;4.53;2.28;;;6.30;90.10;;;;;;4957348;28;20050;-77
2023/01/31 11:00:47;;;;;;;5.93;2.22;;;6.40;90.10;;;;;;4957008;28;20067;-78
2023/01/31 11:03:14;;;;;;;5.93;2.10;;;6.40;90.00;;;;;;4940893;28;20413;-78
2023/01/31 11:05:47;;;;;;;6.05;2.78;;;6.50;90.00;;;;;;4975134;28;20047;-77
2023/01/31 11:08:32;;;;;;;7.63;2.22;;;6.60;90.00;;;;;;4956402;28;20046;-78
2023/01/31 11:11:06;;;;;;;6.10;2.60;;;6.60;90.00;;;;;;4956207;28;20046;-78
2023/01/31 11:13:35;;;;;;;6.60;2.38;;;6.60;89.80;;;;;;4975118;28;20035;-77
2023/01/31 11:16:03;;;;;;;7.45;2.65;;;6.70;89.80;;;;;;4956605;28;20043;-77
2023/01/31 11:18:34;;;;;;;5.57;2.53;;;6.70;89.80;;;;;;4955717;28;20097;-76
2023/01/31 11:21:01;;;;;;;6.90;3.33;;;6.80;89.80;;;;;;4940550;28;20039;-77
2023/01/31 11:23:31;;;;;;;7.45;3.00;;;6.80;89.80;;;;;;4955753;28;20438;-78
2023/01/31 11:25:58;;;;;;;6.53;2.80;;;6.80;89.80;;;;;;4957383;28;20514;-77
2023/01/31 11:28:36;;;;;;;6.95;3.30;;;6.90;89.90;;;;;;4925793;28;20031;-77
2023/01/31 11:31:06;;;;;;;6.80;3.10;;;6.90;89.90;;;;;;4940060;28;20038;-77
2023/01/31 11:34:04;;;;;;;7.90;2.78;;;6.80;89.90;;;;;;4955831;28;20039;-77
2023/01/31 11:36:33;;;;;;;5.63;2.83;;;6.90;90.00;;;;;;4974727;28;20039;-79
2023/01/31 11:38:58;;;;;;;4.53;2.40;;;6.90;90.00;;;;;;4941568;28;20100;-77
2023/01/31 11:41:29;;;;;;;7.22;2.70;;;6.90;90.00;;;;;;4956698;28;20146;-78
2023/01/31 11:44:16;;;;;;;7.80;2.80;;;7.00;90.00;;;;;;4941057;28;20054;-76
2023/01/31 11:46:58;;;;;;;4.65;2.60;;;7.00;90.00;;;;;;4974701;28;20047;-77
2023/01/31 11:49:41;;;;;;;6.55;2.55;;;7.00;90.00;;;;;;4942857;28;20042;-77
2023/01/31 11:52:18;;;;;;;5.72;2.97;;;7.10;90.00;;;;;;4941104;28;20043;-77
2023/01/31 11:54:53;;;;;;;5.97;2.78;;;7.10;90.00;;;;;;4940849;28;20045;-77
2023/01/31 11:57:25;;;;;;;6.10;2.80;;;7.10;90.00;;;;;;4955528;28;20047;-77
2023/01/31 11:59:53;;;;;;;4.57;2.38;;;7.10;90.00;;;;;;4974756;28;20135;-77
2023/01/31 12:02:38;;;;;;;6.28;3.15;;;7.10;90.00;;;;;;4974974;28;20030;-76
2023/01/31 12:05:09;;;;;;;8.93;3.22;;;7.10;90.00;;;;;;4957064;28;20047;-76
2023/01/31 12:07:52;;;;;;;;;;;7.10;90.10;;;;;;4941372;28;20066;-76
2023/01/31 12:10:33;;;;;;;11.10;3.28;;;7.10;90.10;;;;;;4955103;28;19914;-76
2023/01/31 12:13:03;;;;;;;5.60;2.85;;;7.10;90.10;;;;;;4940469;28;20078;-76
2023/01/31 12:15:30;;;;;;;8.38;3.20;;;7.10;90.20;;;;;;4956414;28;20122;-77
2023/01/31 12:17:58;;;;;;;8.05;2.92;;;7.10;90.30;;;;;;4955691;28;20054;-77
2023/01/31 12:20:41;;;;;;;6.97;2.50;;;7.00;90.30;;;;;;4974241;28;20043;-77
2023/01/31 12:23:29;;;;;;;6.63;2.70;;;7.00;90.40;;;;;;4957320;28;20053;-76
2023/01/31 12:26:22;;;;;;;5.60;2.42;;;7.00;90.40;;;;;;4940908;28;20102;-77
2023/01/31 12:29:11;;;;;;;7.45;2.72;;;7.00;90.50;;;;;;4955664;28;20039;-77
2023/01/31 12:31:52;;;;;;;6.72;2.47;;;7.00;90.60;;;;;;4973964;28;20045;-77
2023/01/31 12:34:34;;;;;;;5.45;2.20;;;7.10;90.60;;;;;;4956158;28;20121;-77
2023/01/31 12:37:28;;;;;;;3.95;2.00;;;7.10;90.70;;;;;;4949203;28;20528;-77
2023/01/31 12:40:24;;;;;;;4.53;1.88;;;7.10;90.70;;;;;;4954817;28;20126;-77
2023/01/31 12:42:57;;;;;;;6.43;1.90;;;7.10;90.70;;;;;;4953990;28;20137;-77
2023/01/31 12:45:38;;;;;;;4.00;2.00;;;7.00;90.70;;;;;;4956224;28;20053;-78
2023/01/31 12:48:21;;;;;;;5.78;2.10;;;7.10;90.80;;;;;;4956118;28;20051;-78
2023/01/31 12:50:51;;;;;;;5.68;2.10;;;7.10;90.80;;;;;;4955232;28;20050;-78
2023/01/31 12:53:39;;;;;;;3.63;1.83;;;7.10;90.80;;;;;;4940190;28;20058;-77
2023/01/31 12:56:36;;;;;;;4.47;1.80;;;7.10;90.90;;;;;;4955501;28;20106;-77
2023/01/31 12:59:30;;;;;;;3.88;1.80;;;7.20;90.90;;;;;;4955099;28;20067;-77
2023/01/31 13:02:14;;;;;;;5.18;1.90;;;7.20;91.00;;;;;;4973464;28;20043;-76
2023/01/31 13:04:48;;;;;;;4.63;1.98;;;7.10;90.90;;;;;;4956290;28;20042;-76
2023/01/31 13:07:29;;;;;;;4.00;2.03;;;7.10;91.00;;;;;;4954520;28;20199;-76
2023/01/31 13:10:00;;;;;;;4.88;1.70;;;7.20;91.00;;;;;;4941132;28;20075;-76
2023/01/31 13:12:30;;;;;;;3.72;1.70;;;7.20;91.00;;;;;;4955837;28;20041;-77
2023/01/31 13:15:05;;;;;;;3.63;1.50;;;7.20;91.00;;;;;;4924545;28;20547;-76
2023/01/31 13:17:34;;;;;;;4.40;1.55;;;7.20;91.10;;;;;;4940787;28;20485;-75
2023/01/31 13:20:18;;;;;;;4.25;2.05;;;7.20;91.10;;;;;;4953909;28;20106;-76
2023/01/31 13:22:48;;;;;;;3.45;1.85;;;7.20;91.10;;;;;;4954421;28;20051;-78
2023/01/31 13:25:22;;;;;;;3.85;2.03;;;7.30;91.20;;;;;;4953951;28;20051;-76
2023/01/31 13:27:59;;;;;;;4.63;1.80;;;7.30;91.20;;;;;;4955055;28;20078;-77
2023/01/31 13:30:46;;;;;;;4.57;1.88;;;7.30;91.20;;;;;;4955388;28;20501;-77